« Back
NWS Peachtree City, Ga » Text Product » ATL Terminal Aerodrome Forecast


Printer-friendly Version
Current Version              Previous Versions:   1  2  3  4  5  6  7  8  9  

Terminal Aerodrome Forecast

044
FTUS42 KFFC 012000 AAA
TAFATL
TAF AMD
KATL 012000Z 0120/0224 29008KT P6SM FEW060
     FM020000 28004KT P6SM FEW250
     FM021400 28005KT P6SM FEW040
     FM021800 26008KT P6SM SCT060=

USA.gov is the U.S. government's official web portal to all federal, state and local government web resources and services.